createdAt,value
2023-10-26T00:01:12.325Z,87293.56
2023-10-26T00:03:57.446Z,87287.94
2023-10-26T00:06:42.636Z,87283.13
2023-10-26T00:09:27.880Z,87275.41
2023-10-26T00:12:12.972Z,87276.19
2023-10-26T00:14:58.124Z,87268.53
2023-10-26T00:17:43.042Z,87260.16
2023-10-26T00:20:28.161Z,87265.50
2023-10-26T00:23:13.284Z,87260.56
2023-10-26T00:25:58.376Z,87250.97
2023-10-26T00:28:43.531Z,87259.38
2023-10-26T00:31:28.673Z,87252.75
2023-10-26T00:34:13.844Z,87243.97
2023-10-26T00:36:58.621Z,87252.34
2023-10-26T00:39:43.769Z,87251.38
2023-10-26T00:42:28.766Z,87254.66
2023-10-26T00:45:13.845Z,87251.38
2023-10-26T00:47:59.020Z,87255.91
2023-10-26T00:50:44.041Z,87261.81
2023-10-26T00:53:29.169Z,87257.16
2023-10-26T00:56:14.311Z,87263.47
2023-10-26T00:58:59.560Z,87281.56
2023-10-26T01:01:44.459Z,87273.84
2023-10-26T01:04:29.709Z,87279.47
2023-10-26T01:07:14.869Z,87282.53
2023-10-26T01:09:59.669Z,87274.41
2023-10-26T01:12:45.135Z,87280.59
2023-10-26T01:15:30.114Z,87291.28
2023-10-26T01:18:15.393Z,87284.53
2023-10-26T01:21:00.431Z,87284.78
2023-10-26T01:23:45.532Z,87283.28
2023-10-26T01:26:30.667Z,87285.91
2023-10-26T01:29:15.926Z,87285.38
2023-10-26T01:32:01.007Z,87275.38
2023-10-26T01:34:46.210Z,87274.56
2023-10-26T01:37:31.280Z,87278.16
2023-10-26T01:40:16.308Z,87288.16
2023-10-26T01:43:01.339Z,87289.25
2023-10-26T01:45:46.535Z,87282.53
2023-10-26T01:48:31.897Z,87277.16
2023-10-26T01:51:17.029Z,87271.25
2023-10-26T01:54:02.069Z,87261.91
2023-10-26T01:56:47.390Z,87266.72
2023-10-26T01:59:32.415Z,87266.28
2023-10-26T02:02:17.730Z,87266.28
2023-10-26T02:05:02.758Z,87269.19
2023-10-26T02:07:47.835Z,87270.16
2023-10-26T02:10:32.824Z,87276.59
2023-10-26T02:13:17.856Z,87274.13
2023-10-26T02:16:02.893Z,87275.78
2023-10-26T02:18:48.062Z,87295.41
2023-10-26T02:21:33.216Z,87288.44
2023-10-26T02:24:18.332Z,87288.03
2023-10-26T02:27:03.471Z,87293.09
2023-10-26T02:29:48.504Z,87295.28
2023-10-26T02:32:33.574Z,87281.28
2023-10-26T02:35:18.605Z,87267.66
2023-10-26T02:38:03.557Z,87266.00
2023-10-26T02:40:48.717Z,87270.94
2023-10-26T02:43:33.686Z,87256.22
2023-10-26T02:46:18.902Z,87248.78
2023-10-26T02:49:03.896Z,87244.56
2023-10-26T02:51:49.098Z,87236.88
2023-10-26T02:54:34.243Z,87234.72
2023-10-26T02:57:19.337Z,87236.34
2023-10-26T03:00:04.570Z,87245.84
2023-10-26T03:02:49.834Z,87237.84
2023-10-26T03:05:34.884Z,87240.16
2023-10-26T03:08:19.831Z,87232.91
2023-10-26T03:11:05.094Z,87215.19
2023-10-26T03:13:50.107Z,87219.03
2023-10-26T03:16:35.161Z,87223.03
2023-10-26T03:19:20.218Z,87214.94
2023-10-26T03:22:05.349Z,87227.03
2023-10-26T03:24:50.716Z,87231.13
2023-10-26T03:27:35.588Z,87233.31
2023-10-26T03:30:20.847Z,87227.81
2023-10-26T03:33:05.805Z,87230.13
2023-10-26T03:35:50.838Z,87217.22
2023-10-26T03:38:35.996Z,87218.75
2023-10-26T03:41:22.865Z,87222.44
2023-10-26T03:44:09.192Z,87226.69
2023-10-26T03:46:54.190Z,87230.25
2023-10-26T03:49:39.262Z,87224.81
2023-10-26T03:52:24.398Z,87235.34
2023-10-26T03:55:09.487Z,87235.22
2023-10-26T03:57:54.659Z,87243.06
2023-10-26T04:00:39.615Z,87235.34
2023-10-26T04:03:24.935Z,87235.34
2023-10-26T04:06:09.947Z,87242.09
2023-10-26T04:08:55.028Z,87253.47
2023-10-26T04:11:40.201Z,87254.56
2023-10-26T04:14:25.184Z,87255.25
2023-10-26T04:17:10.229Z,87249.59
2023-10-26T04:19:55.453Z,87243.69
2023-10-26T04:22:40.513Z,87256.97
2023-10-26T04:25:26.627Z,87248.72
2023-10-26T04:28:17.113Z,87240.31
2023-10-26T04:31:02.316Z,87234.53
2023-10-26T04:33:47.382Z,87233.69
2023-10-26T04:36:32.397Z,87226.44
2023-10-26T04:39:17.586Z,87227.75
2023-10-26T04:42:02.520Z,87226.94
2023-10-26T04:44:47.767Z,87207.41
2023-10-26T04:47:32.871Z,87209.63
2023-10-26T04:50:17.994Z,87197.69
2023-10-26T04:53:03.091Z,87194.28
2023-10-26T04:55:48.155Z,87192.63
2023-10-26T04:58:33.284Z,87194.69
2023-10-26T05:01:18.329Z,87186.31
2023-10-26T05:04:03.488Z,87201.41
2023-10-26T05:06:48.725Z,87195.41
2023-10-26T05:09:33.513Z,87196.50
2023-10-26T05:12:18.553Z,87207.03
2023-10-26T05:15:05.211Z,87202.38
2023-10-26T05:17:50.951Z,87200.59
2023-10-26T05:20:36.003Z,87206.59
2023-10-26T05:23:21.324Z,87207.31
2023-10-26T05:26:06.369Z,87200.31
2023-10-26T05:28:51.488Z,87206.91
2023-10-26T05:31:36.549Z,87191.31
2023-10-26T05:34:21.566Z,87201.88
2023-10-26T05:37:06.783Z,87210.69
2023-10-26T05:39:51.801Z,87210.25
2023-10-26T05:42:36.971Z,87205.28
2023-10-26T05:45:21.954Z,87225.84
2023-10-26T05:48:07.104Z,87225.56
2023-10-26T05:50:52.136Z,87236.13
2023-10-26T05:53:37.261Z,87241.63
2023-10-26T05:56:22.426Z,87241.63
2023-10-26T05:59:07.292Z,87223.53
2023-10-26T06:01:52.471Z,87210.22
2023-10-26T06:04:37.422Z,87202.63
2023-10-26T06:07:22.751Z,87205.94
2023-10-26T06:10:07.809Z,87215.94
2023-10-26T06:12:53.041Z,87201.03
2023-10-26T06:15:38.172Z,87205.69
2023-10-26T06:18:23.289Z,87198.94
2023-10-26T06:21:08.609Z,87214.75
2023-10-26T06:23:53.556Z,87198.78
2023-10-26T06:26:38.784Z,87209.22
2023-10-26T06:29:23.862Z,87197.91
2023-10-26T06:32:08.975Z,87183.66
2023-10-26T06:34:54.026Z,87187.69
2023-10-26T06:37:39.223Z,87183.72
2023-10-26T06:40:24.315Z,87202.00
2023-10-26T06:43:09.177Z,87173.06
2023-10-26T06:45:54.300Z,87172.78
2023-10-26T06:48:39.359Z,87179.97
2023-10-26T06:51:24.451Z,87172.16
2023-10-26T06:54:09.686Z,87174.47
2023-10-26T06:56:54.736Z,87169.53
2023-10-26T06:59:39.906Z,87150.03
2023-10-26T07:02:25.021Z,87151.00
2023-10-26T07:05:10.207Z,87164.03
2023-10-26T07:07:55.206Z,87162.69
2023-10-26T07:10:40.269Z,87174.75
2023-10-26T07:13:25.317Z,87202.63
2023-10-26T07:16:10.490Z,87211.19
2023-10-26T07:18:55.652Z,87207.19
2023-10-26T07:21:40.660Z,87227.78
2023-10-26T07:24:25.717Z,87241.41
2023-10-26T07:27:11.839Z,87250.16
2023-10-26T07:29:56.768Z,87253.69
2023-10-26T07:32:41.862Z,87270.25
2023-10-26T07:35:27.003Z,87269.13
2023-10-26T07:38:35.747Z,87262.00
2023-10-26T07:41:16.769Z,87260.72
2023-10-26T07:44:01.885Z,87256.50
2023-10-26T07:46:46.970Z,87276.00
2023-10-26T07:49:32.065Z,87290.47
2023-10-26T07:52:17.571Z,87299.72
2023-10-26T07:55:02.345Z,87297.53
2023-10-26T07:57:47.490Z,87309.63
2023-10-26T08:00:32.524Z,87317.88
2023-10-26T08:03:17.641Z,87324.09
2023-10-26T08:06:02.746Z,87329.63
2023-10-26T08:08:47.787Z,87328.53
2023-10-26T08:11:33.164Z,87332.81
2023-10-26T08:14:31.490Z,87346.16
2023-10-26T08:17:22.922Z,87322.38
2023-10-26T08:20:08.167Z,87313.59
2023-10-26T08:22:53.247Z,87314.28
2023-10-26T08:25:38.483Z,87322.00
2023-10-26T08:28:23.548Z,87335.47
2023-10-26T08:31:08.479Z,87337.38
2023-10-26T08:33:53.629Z,87345.63
2023-10-26T08:36:42.246Z,87329.38
2023-10-26T08:39:29.918Z,87329.50
2023-10-26T08:42:16.761Z,87312.16
2023-10-26T08:45:02.071Z,87307.66
2023-10-26T08:47:47.321Z,87305.81
2023-10-26T08:50:32.275Z,87293.84
2023-10-26T08:53:17.365Z,87299.91
2023-10-26T08:56:02.545Z,87304.84
2023-10-26T08:58:47.551Z,87292.69
2023-10-26T09:01:32.893Z,87289.88
2023-10-26T09:04:18.207Z,87288.34
2023-10-26T09:07:03.503Z,87294.44
2023-10-26T09:09:48.535Z,87290.06
2023-10-26T09:12:33.860Z,87290.06
2023-10-26T09:15:19.026Z,87281.31
2023-10-26T09:18:04.054Z,87245.56
2023-10-26T09:20:49.212Z,87224.06
2023-10-26T09:23:34.309Z,87234.84
2023-10-26T09:26:19.484Z,87247.22
2023-10-26T09:29:04.506Z,87244.84
2023-10-26T09:31:49.834Z,87262.78
2023-10-26T09:34:34.921Z,87271.06
2023-10-26T09:37:19.919Z,87258.78
2023-10-26T09:42:57.479Z,87267.72
2023-10-26T09:45:42.245Z,87272.38
2023-10-26T09:48:27.483Z,87269.69
2023-10-26T09:51:12.448Z,87252.59
2023-10-26T09:53:57.512Z,87261.59
2023-10-26T09:56:42.625Z,87258.75
2023-10-26T09:59:27.704Z,87260.53
2023-10-26T10:02:12.883Z,87264.94
2023-10-26T10:04:57.828Z,87274.19
2023-10-26T10:07:43.128Z,87271.47
2023-10-26T10:10:28.084Z,87269.91
2023-10-26T10:13:13.321Z,87272.25
2023-10-26T10:15:58.464Z,87288.09
2023-10-26T10:18:43.546Z,87301.81
2023-10-26T10:21:28.725Z,87293.41
2023-10-26T10:24:13.759Z,87281.66
2023-10-26T10:26:59.018Z,87269.91
2023-10-26T10:29:44.121Z,87270.94
2023-10-26T10:32:29.416Z,87278.41
2023-10-26T10:35:14.385Z,87265.19
2023-10-26T10:37:59.558Z,87261.00
2023-10-26T10:40:44.570Z,87252.00
2023-10-26T10:43:29.620Z,87249.44
2023-10-26T10:46:14.751Z,87241.75
2023-10-26T10:48:59.743Z,87246.72
2023-10-26T10:51:44.948Z,87236.56
2023-10-26T10:54:40.768Z,87229.41
2023-10-26T10:57:33.593Z,87229.78
2023-10-26T11:00:18.593Z,87228.00
2023-10-26T11:03:03.584Z,87214.03
2023-10-26T11:05:48.821Z,87200.34
2023-10-26T11:08:33.749Z,87192.94
2023-10-26T11:11:18.828Z,87196.72
2023-10-26T11:14:03.868Z,87194.13
2023-10-26T11:16:49.013Z,87189.72
2023-10-26T11:19:34.115Z,87179.44
2023-10-26T11:22:19.072Z,87186.75
2023-10-26T11:25:04.301Z,87176.13
2023-10-26T11:27:49.371Z,87178.63
2023-10-26T11:30:34.428Z,87160.13
2023-10-26T11:33:19.526Z,87151.66
2023-10-26T11:36:04.640Z,87146.00
2023-10-26T11:38:49.815Z,87138.50
2023-10-26T11:41:34.804Z,87124.84
2023-10-26T11:44:19.904Z,87124.28
2023-10-26T11:47:04.859Z,87124.13
2023-10-26T11:49:50.038Z,87115.56
2023-10-26T11:52:35.193Z,87102.31
2023-10-26T11:55:20.201Z,87087.59
2023-10-26T11:58:05.455Z,87079.72
2023-10-26T12:00:50.546Z,87069.22
2023-10-26T12:03:35.994Z,87067.63
2023-10-26T12:06:21.001Z,87054.03
2023-10-26T12:09:06.090Z,87043.03
2023-10-26T12:11:51.120Z,87040.50
2023-10-26T12:14:36.244Z,87042.81
2023-10-26T12:17:21.506Z,87047.88
2023-10-26T12:20:06.669Z,87042.44
2023-10-26T12:22:51.812Z,87050.09
2023-10-26T12:25:36.854Z,87049.84
2023-10-26T12:28:27.006Z,87043.47
2023-10-26T12:31:13.764Z,87042.69
2023-10-26T12:33:58.686Z,87042.22
2023-10-26T12:36:43.752Z,87045.97
2023-10-26T12:39:28.990Z,87038.81
2023-10-26T12:42:13.897Z,87046.22
2023-10-26T12:44:59.030Z,87053.28
2023-10-26T12:47:44.214Z,87041.66
2023-10-26T12:50:29.473Z,87038.00
2023-10-26T12:53:14.427Z,87022.94
2023-10-26T12:55:59.652Z,87023.53
2023-10-26T12:58:44.730Z,87015.63
2023-10-26T13:01:29.965Z,87013.44
2023-10-26T13:04:15.192Z,87007.28
2023-10-26T13:07:00.148Z,86997.91
2023-10-26T13:09:45.515Z,87000.19
2023-10-26T13:12:30.985Z,87010.88
2023-10-26T13:15:19.418Z,87006.44
2023-10-26T13:18:06.930Z,87000.19
2023-10-26T13:20:52.635Z,87000.53
2023-10-26T13:23:37.427Z,87004.31
2023-10-26T13:26:22.560Z,86999.44
2023-10-26T13:29:07.540Z,86996.84
2023-10-26T13:31:52.801Z,86990.91
2023-10-26T13:34:37.881Z,86978.09
2023-10-26T13:37:23.090Z,86972.16
2023-10-26T13:40:08.177Z,86966.91
2023-10-26T13:42:53.357Z,86968.38
2023-10-26T13:45:38.522Z,86963.34
2023-10-26T13:48:23.580Z,86960.03
2023-10-26T13:51:08.867Z,86966.56
2023-10-26T13:53:53.883Z,86960.72
2023-10-26T13:56:39.077Z,86963.03
2023-10-26T13:59:24.123Z,86967.25
2023-10-26T14:02:09.171Z,86963.16
2023-10-26T14:04:54.307Z,86957.44
2023-10-26T14:07:39.451Z,86954.28
2023-10-26T14:10:24.662Z,86961.88
2023-10-26T14:13:09.724Z,86958.47
2023-10-26T14:15:55.057Z,86959.47
2023-10-26T14:18:40.072Z,86951.72
2023-10-26T14:21:25.267Z,86955.13
2023-10-26T14:24:10.541Z,86963.78
2023-10-26T14:26:55.641Z,86963.34
2023-10-26T14:29:41.043Z,86958.66
2023-10-26T14:32:26.122Z,86954.00
2023-10-26T14:35:11.436Z,86953.56
2023-10-26T14:37:56.456Z,86950.59
2023-10-26T14:40:41.742Z,86954.94
2023-10-26T14:43:26.786Z,86943.34
2023-10-26T14:46:11.888Z,86941.63
2023-10-26T14:48:57.296Z,86949.66
2023-10-26T14:51:42.480Z,86952.66
2023-10-26T14:54:27.706Z,86963.50
2023-10-26T14:57:12.756Z,86968.84
2023-10-26T14:59:57.894Z,86959.97
2023-10-26T15:02:43.128Z,86967.00
2023-10-26T15:05:28.090Z,86964.25
2023-10-26T15:08:13.643Z,86959.09
2023-10-26T15:11:24.151Z,86960.00
2023-10-26T15:14:03.826Z,86967.84
2023-10-26T15:16:49.107Z,86965.91
2023-10-26T15:19:34.235Z,86959.31
2023-10-26T15:22:19.624Z,86966.13
2023-10-26T15:25:04.676Z,86960.09
2023-10-26T15:27:49.795Z,86956.66
2023-10-26T15:30:34.974Z,86958.59
2023-10-26T15:33:20.074Z,86944.50
2023-10-26T15:36:05.400Z,86926.88
2023-10-26T15:38:50.339Z,86926.31
2023-10-26T15:41:35.515Z,86914.69
2023-10-26T15:44:20.633Z,86925.97
2023-10-26T15:47:05.875Z,86914.94
2023-10-26T15:49:50.997Z,86904.00
2023-10-26T15:52:35.824Z,86905.00
2023-10-26T15:55:22.338Z,86911.44
2023-10-26T15:58:07.196Z,86906.56
2023-10-26T16:00:52.443Z,86898.47
2023-10-26T16:03:37.394Z,86897.78
2023-10-26T16:06:22.599Z,86895.16
2023-10-26T16:09:07.798Z,86896.19
2023-10-26T16:14:38.889Z,86900.16
2023-10-26T16:17:23.721Z,86906.06
2023-10-26T16:20:08.944Z,86911.28
2023-10-26T16:22:54.064Z,86900.97
2023-10-26T16:25:39.172Z,86905.06
2023-10-26T16:28:24.194Z,86909.59
2023-10-26T16:31:09.500Z,86912.09
2023-10-26T16:33:54.609Z,86899.03
2023-10-26T16:36:39.518Z,86895.84
2023-10-26T16:39:24.770Z,86903.81
2023-10-26T16:42:09.733Z,86898.34
2023-10-26T16:44:54.964Z,86903.44
2023-10-26T16:47:52.001Z,86905.94
2023-10-26T16:50:40.995Z,86892.31
2023-10-26T16:53:31.237Z,86906.06
2023-10-26T16:56:17.426Z,86908.31
2023-10-26T16:59:02.454Z,86901.28
2023-10-26T17:01:47.631Z,86896.72
2023-10-26T17:04:32.579Z,86898.88
2023-10-26T17:07:17.674Z,86904.66
2023-10-26T17:10:02.780Z,86893.97
2023-10-26T17:12:47.849Z,86895.75
2023-10-26T17:15:33.041Z,86901.56
2023-10-26T17:18:18.031Z,86891.13
2023-10-26T17:21:03.136Z,86884.63
2023-10-26T17:23:48.255Z,86888.38
2023-10-26T17:26:33.511Z,86888.94
2023-10-26T17:29:18.501Z,86888.56
2023-10-26T17:32:03.591Z,86871.53
2023-10-26T17:34:48.757Z,86879.25
2023-10-26T17:37:33.767Z,86876.94
2023-10-26T17:40:19.014Z,86876.59
2023-10-26T17:43:04.098Z,86881.50
2023-10-26T17:45:49.105Z,86868.41
2023-10-26T17:48:34.155Z,86868.84
2023-10-26T17:51:19.321Z,86868.06
2023-10-26T17:54:04.597Z,86867.94
2023-10-26T17:56:49.637Z,86853.25
2023-10-26T17:59:34.794Z,86853.81
2023-10-26T18:02:19.883Z,86860.19
2023-10-26T18:05:05.089Z,86852.06
2023-10-26T18:07:50.076Z,86846.72
2023-10-26T18:10:35.406Z,86844.09
2023-10-26T18:13:20.591Z,86835.59
2023-10-26T18:16:05.964Z,86811.38
2023-10-26T18:18:50.989Z,86812.75
2023-10-26T18:21:35.980Z,86802.31
2023-10-26T18:24:21.081Z,86800.25
2023-10-26T18:27:06.214Z,86787.97
2023-10-26T18:29:51.279Z,86800.06
2023-10-26T18:32:36.426Z,86801.56
2023-10-26T18:35:21.512Z,86802.69
2023-10-26T18:38:06.751Z,86802.31
2023-10-26T18:40:51.768Z,86802.31
2023-10-26T18:43:36.899Z,86794.47
2023-10-26T18:46:21.904Z,86806.97
2023-10-26T18:49:06.991Z,86794.47
2023-10-26T18:51:52.061Z,86786.63
2023-10-26T18:54:37.157Z,86789.06
2023-10-26T18:57:22.348Z,86799.50
2023-10-26T19:00:07.434Z,86780.44
2023-10-26T19:02:52.714Z,86784.00
2023-10-26T19:05:37.857Z,86777.63
2023-10-26T19:08:23.121Z,86769.34
2023-10-26T19:11:08.191Z,86770.13
2023-10-26T19:13:53.459Z,86781.84
2023-10-26T19:16:38.985Z,86758.66
2023-10-26T19:19:24.177Z,86759.66
2023-10-26T19:22:09.559Z,86758.03
2023-10-26T19:24:54.585Z,86750.66
2023-10-26T19:27:39.723Z,86732.28
2023-10-26T19:30:24.845Z,86737.03
2023-10-26T19:33:09.882Z,86741.59
2023-10-26T19:35:55.151Z,86734.88
2023-10-26T19:38:40.190Z,86740.09
2023-10-26T19:41:25.359Z,86720.66
2023-10-26T19:44:10.380Z,86718.69
2023-10-26T19:46:55.707Z,86719.00
2023-10-26T19:49:40.611Z,86722.72
2023-10-26T19:52:25.755Z,86727.28
2023-10-26T19:55:10.989Z,86734.66
2023-10-26T19:57:55.996Z,86726.97
2023-10-26T20:00:41.287Z,86730.38
2023-10-26T20:03:26.207Z,86728.31
2023-10-26T20:06:11.208Z,86722.84
2023-10-26T20:08:56.030Z,86714.22
2023-10-26T20:11:41.243Z,86705.22
2023-10-26T20:14:26.368Z,86708.63
2023-10-26T20:17:11.373Z,86706.03
2023-10-26T20:19:56.624Z,86693.09
2023-10-26T20:22:41.648Z,86681.63
2023-10-26T20:25:26.738Z,86672.59
2023-10-26T20:28:11.758Z,86664.19
2023-10-26T20:30:56.702Z,86663.72
2023-10-26T20:33:41.682Z,86647.63
2023-10-26T20:36:26.665Z,86649.56
2023-10-26T20:39:12.753Z,86633.78
2023-10-26T20:41:58.062Z,86630.47
2023-10-26T20:44:43.259Z,86627.09
2023-10-26T20:47:28.520Z,86624.13
2023-10-26T20:50:13.684Z,86628.66
2023-10-26T20:52:58.888Z,86629.78
2023-10-26T20:55:43.883Z,86630.31
2023-10-26T20:58:29.050Z,86623.63
2023-10-26T21:01:14.099Z,86623.75
2023-10-26T21:03:59.378Z,86621.81
2023-10-26T21:06:44.267Z,86623.63
2023-10-26T21:09:29.388Z,86626.94
2023-10-26T21:12:14.613Z,86625.09
2023-10-26T21:14:59.639Z,86625.25
2023-10-26T21:17:44.889Z,86611.50
2023-10-26T21:20:29.835Z,86610.47
2023-10-26T21:23:15.139Z,86601.97
2023-10-26T21:26:00.258Z,86600.13
2023-10-26T21:28:45.330Z,86598.94
2023-10-26T21:31:30.549Z,86590.81
2023-10-26T21:34:15.624Z,86588.31
2023-10-26T21:37:00.745Z,86580.72
2023-10-26T21:39:45.994Z,86582.06
2023-10-26T21:42:30.939Z,86578.78
2023-10-26T21:45:16.043Z,86582.22
2023-10-26T21:48:01.244Z,86599.22
2023-10-26T21:50:46.379Z,86588.22
2023-10-26T21:53:31.588Z,86608.97
2023-10-26T21:56:16.788Z,86617.94
2023-10-26T21:59:01.810Z,86616.56
2023-10-26T22:01:47.067Z,86635.41
2023-10-26T22:04:32.151Z,86648.19
2023-10-26T22:07:17.323Z,86653.06
2023-10-26T22:10:02.399Z,86649.47
2023-10-26T22:12:47.557Z,86662.94
2023-10-26T22:15:32.678Z,86679.16
2023-10-26T22:18:17.758Z,86683.44
2023-10-26T22:21:02.935Z,86682.00
2023-10-26T22:23:47.994Z,86679.22
2023-10-26T22:26:33.165Z,86685.22
2023-10-26T22:29:29.252Z,86688.53
2023-10-26T22:32:14.938Z,86688.09
2023-10-26T22:35:00.062Z,86697.41
2023-10-26T22:37:45.258Z,86710.78
2023-10-26T22:40:30.376Z,86718.31
2023-10-26T22:43:15.703Z,86723.66
2023-10-26T22:46:00.898Z,86732.28
2023-10-26T22:48:45.965Z,86739.56
2023-10-26T22:51:31.110Z,86738.75
2023-10-26T22:54:16.098Z,86726.97
2023-10-26T22:57:01.167Z,86725.56
2023-10-26T22:59:46.239Z,86736.84
2023-10-26T23:02:31.390Z,86727.50
2023-10-26T23:05:16.542Z,86743.06
2023-10-26T23:08:01.564Z,86766.31
2023-10-26T23:10:46.696Z,86760.38
2023-10-26T23:13:31.820Z,86774.81
2023-10-26T23:16:16.982Z,86782.75
2023-10-26T23:19:02.127Z,86776.13
2023-10-26T23:21:47.175Z,86774.19
2023-10-26T23:24:32.199Z,86778.22
2023-10-26T23:27:17.185Z,86782.78
2023-10-26T23:30:02.476Z,86784.94
2023-10-26T23:32:47.508Z,86783.44
2023-10-26T23:35:32.741Z,86782.19
2023-10-26T23:38:17.867Z,86781.50
2023-10-26T23:41:02.959Z,86781.75
2023-10-26T23:43:47.911Z,86786.94
2023-10-26T23:46:32.981Z,86775.09
2023-10-26T23:49:18.116Z,86776.69
2023-10-26T23:52:03.210Z,86784.38
2023-10-26T23:54:48.493Z,86779.09
2023-10-26T23:57:33.605Z,86773.63
